Time;durP1;ratioP1;P1;durP2;ratioP2;P2;SDS_P1;SDS_P2;PMS_P1;PMS_P2;Temp;Humidity;BMP_temperature;BMP_pressure;BME280_temperature;BME280_humidity;BME280_pressure;Samples;Min_cycle;Max_cycle;Signal;HPM_P1;HPM_P2
2022/08/28 00:01:52;;;;;;;8.65;3.40;;;;;;;;;;4971200;28;20108;-62
2022/08/28 00:04:18;;;;;;;8.63;3.92;;;;;;;;;;4970623;28;20391;-62
2022/08/28 00:06:43;;;;;;;7.90;3.42;;;;;;;;;;4970717;28;20436;-62
2022/08/28 00:09:08;;;;;;;8.48;3.70;;;;;;;;;;4970584;28;20433;-63
2022/08/28 00:11:36;;;;;;;9.25;3.55;;;;;;;;;;4969944;28;20495;-62
2022/08/28 00:14:03;;;;;;;8.23;3.40;;;;;;;;;;4970020;28;20505;-62
2022/08/28 00:16:30;;;;;;;11.15;3.45;;;;;;;;;;4969821;28;20025;-62
2022/08/28 00:18:55;;;;;;;4.20;3.05;;;;;;;;;;4970111;28;20432;-62
2022/08/28 00:21:21;;;;;;;8.60;3.65;;;;;;;;;;4971007;28;20336;-62
2022/08/28 00:23:47;;;;;;;5.05;3.40;;;;;;;;;;4970596;28;20096;-62
2022/08/28 00:27:51;;;;;;;5.45;2.90;;;;;;;;;;4969988;28;20372;-62
2022/08/28 00:28:58;;;;;;;7.25;3.05;;;;;;;;;;4969937;28;20526;-62
2022/08/28 00:31:23;;;;;;;5.93;3.33;;;;;;;;;;4969689;28;20400;-62
2022/08/28 00:33:49;;;;;;;6.03;3.08;;;;;;;;;;4969640;28;20458;-62
2022/08/28 00:36:15;;;;;;;7.32;2.85;;;;;;;;;;4970441;28;20092;-62
2022/08/28 00:38:40;;;;;;;3.97;2.85;;;;;;;;;;4969871;28;20139;-62
2022/08/28 00:41:05;;;;;;;7.10;3.70;;;;;;;;;;4971149;28;20360;-62
2022/08/28 00:43:42;;;;;;;7.82;3.47;;;;;;;;;;4969799;28;20506;-62
2022/08/28 00:46:14;;;;;;;6.00;3.20;;;;;;;;;;4970300;28;20554;-62
2022/08/28 00:48:40;;;;;;;4.05;2.65;;;;;;;;;;4969584;28;20448;-62
2022/08/28 00:53:53;;;;;;;11.48;4.05;;;;;;;;;;4970201;28;20543;-62
2022/08/28 00:56:18;;;;;;;12.55;3.03;;;;;;;;;;5000803;28;20426;-62
2022/08/28 00:58:45;;;;;;;6.07;3.25;;;;;;;;;;4970740;28;20053;-62
2022/08/28 01:01:12;;;;;;;9.90;2.97;;;;;;;;;;4967904;28;20068;-62
2022/08/28 01:03:37;;;;;;;6.28;3.45;;;;;;;;;;4979463;28;20586;-62
2022/08/28 01:06:04;;;;;;;6.68;3.78;;;;;;;;;;4988925;28;20431;-62
2022/08/28 01:08:30;;;;;;;6.13;3.28;;;;;;;;;;4988716;28;20029;-62
2022/08/28 01:10:56;;;;;;;6.55;3.20;;;;;;;;;;4989101;28;20428;-62
2022/08/28 01:13:23;;;;;;;6.18;3.30;;;;;;;;;;4988659;28;20467;-62
2022/08/28 01:15:49;;;;;;;7.18;2.95;;;;;;;;;;4988995;28;20367;-62
2022/08/28 01:18:15;;;;;;;8.30;3.33;;;;;;;;;;4987644;28;20367;-62
2022/08/28 01:21:19;;;;;;;5.00;3.15;;;;;;;;;;4986768;28;20383;-63
2022/08/28 01:23:55;;;;;;;11.23;3.67;;;;;;;;;;4957048;28;20474;-62
2022/08/28 01:26:21;;;;;;;5.57;3.40;;;;;;;;;;4986810;28;20344;-62
2022/08/28 01:28:48;;;;;;;6.82;3.42;;;;;;;;;;4988494;28;20351;-62
2022/08/28 01:31:15;;;;;;;5.55;3.05;;;;;;;;;;4988736;28;20359;-62
2022/08/28 01:33:42;;;;;;;7.32;4.13;;;;;;;;;;4987917;28;20394;-61
2022/08/28 01:36:09;;;;;;;9.77;3.38;;;;;;;;;;4988861;28;20486;-62
2022/08/28 01:38:35;;;;;;;7.05;2.90;;;;;;;;;;4989519;28;20048;-62
2022/08/28 01:41:01;;;;;;;7.53;3.25;;;;;;;;;;4990046;28;20376;-62
2022/08/28 01:43:26;;;;;;;5.60;3.42;;;;;;;;;;4988287;28;20324;-62
2022/08/28 01:45:54;;;;;;;6.80;3.38;;;;;;;;;;4988802;28;20060;-62
2022/08/28 01:48:22;;;;;;;10.47;3.40;;;;;;;;;;4987459;28;20367;-62
2022/08/28 01:50:47;;;;;;;8.18;3.20;;;;;;;;;;4989999;28;20355;-62
2022/08/28 01:53:16;;;;;;;7.20;3.88;;;;;;;;;;4988898;28;20021;-62
2022/08/28 01:55:42;;;;;;;5.78;3.38;;;;;;;;;;4990194;28;20411;-62
2022/08/28 01:58:08;;;;;;;6.97;3.30;;;;;;;;;;4988195;28;20317;-62
2022/08/28 02:00:34;;;;;;;6.20;3.83;;;;;;;;;;4986728;28;20503;-62
2022/08/28 02:03:00;;;;;;;6.57;3.25;;;;;;;;;;4987737;28;20458;-62
2022/08/28 02:05:28;;;;;;;7.68;3.47;;;;;;;;;;4988609;28;20424;-62
2022/08/28 02:07:55;;;;;;;9.77;3.78;;;;;;;;;;4987800;28;20355;-62
2022/08/28 02:10:23;;;;;;;5.55;3.42;;;;;;;;;;4987848;28;20443;-62
2022/08/28 02:12:49;;;;;;;5.53;3.20;;;;;;;;;;4987795;28;20509;-62
2022/08/28 02:15:15;;;;;;;9.75;3.63;;;;;;;;;;4989068;28;20434;-62
2022/08/28 02:17:41;;;;;;;6.53;3.30;;;;;;;;;;4987454;28;20333;-61
2022/08/28 02:20:07;;;;;;;6.55;3.72;;;;;;;;;;4987881;28;20348;-62
2022/08/28 02:22:34;;;;;;;9.20;3.75;;;;;;;;;;4988424;28;20043;-62
2022/08/28 02:24:59;;;;;;;6.00;3.28;;;;;;;;;;4989648;28;20526;-63
2022/08/28 02:27:25;;;;;;;6.15;3.55;;;;;;;;;;4987506;28;20527;-62
2022/08/28 02:29:50;;;;;;;7.43;3.45;;;;;;;;;;4987819;28;20467;-62
2022/08/28 02:32:17;;;;;;;4.57;3.20;;;;;;;;;;4987959;28;20052;-62
2022/08/28 02:34:43;;;;;;;6.15;3.28;;;;;;;;;;4988010;28;20064;-61
2022/08/28 02:37:12;;;;;;;6.57;3.25;;;;;;;;;;4987542;28;20083;-62
2022/08/28 02:39:38;;;;;;;5.40;3.15;;;;;;;;;;4987041;28;20382;-62
2022/08/28 02:42:04;;;;;;;10.77;3.47;;;;;;;;;;4988531;28;20340;-62
2022/08/28 02:44:29;;;;;;;5.05;2.78;;;;;;;;;;4987927;28;20363;-62
2022/08/28 02:46:55;;;;;;;4.57;3.03;;;;;;;;;;4988385;28;20325;-62
2022/08/28 02:49:22;;;;;;;6.93;3.35;;;;;;;;;;4987433;28;20399;-62
2022/08/28 02:51:48;;;;;;;5.22;3.50;;;;;;;;;;4987770;28;20423;-62
2022/08/28 02:54:13;;;;;;;6.95;4.00;;;;;;;;;;4988245;28;20187;-62
2022/08/28 02:56:39;;;;;;;7.40;2.83;;;;;;;;;;4987344;28;20523;-62
2022/08/28 02:59:05;;;;;;;5.93;3.03;;;;;;;;;;4987199;28;20055;-62
2022/08/28 03:01:30;;;;;;;8.95;3.70;;;;;;;;;;4987157;28;20033;-62
2022/08/28 03:03:56;;;;;;;5.75;3.63;;;;;;;;;;4987750;28;20467;-62
2022/08/28 03:06:21;;;;;;;4.93;3.42;;;;;;;;;;4987290;28;20475;-62
2022/08/28 03:08:47;;;;;;;5.63;3.25;;;;;;;;;;4987374;28;20502;-63
2022/08/28 03:11:13;;;;;;;7.15;3.65;;;;;;;;;;4986938;28;20090;-62
2022/08/28 03:13:38;;;;;;;5.28;3.55;;;;;;;;;;4988053;28;20510;-62
2022/08/28 03:16:06;;;;;;;5.22;3.58;;;;;;;;;;4987157;28;20048;-62
2022/08/28 03:18:31;;;;;;;7.07;3.33;;;;;;;;;;4988428;28;20516;-62
2022/08/28 03:20:57;;;;;;;5.30;3.58;;;;;;;;;;4988407;28;20510;-63
2022/08/28 03:23:25;;;;;;;8.23;3.15;;;;;;;;;;4986619;28;20041;-63
2022/08/28 03:26:07;;;;;;;5.68;3.05;;;;;;;;;;4987022;28;20432;-62
2022/08/28 03:28:39;;;;;;;4.68;2.88;;;;;;;;;;4987879;28;20528;-62
2022/08/28 03:31:05;;;;;;;5.72;3.55;;;;;;;;;;4990223;28;20325;-62
2022/08/28 03:33:32;;;;;;;4.32;3.25;;;;;;;;;;4990958;28;20047;-62
2022/08/28 03:35:58;;;;;;;6.93;3.22;;;;;;;;;;4990562;28;20458;-63
2022/08/28 03:38:24;;;;;;;6.63;3.60;;;;;;;;;;4990789;28;20358;-62
2022/08/28 03:40:50;;;;;;;6.47;3.35;;;;;;;;;;4991300;28;20349;-62
2022/08/28 03:43:19;;;;;;;4.70;3.25;;;;;;;;;;4989957;28;20047;-62
2022/08/28 03:45:51;;;;;;;;;;;;;;;;;;4992393;28;20476;-62
2022/08/28 03:48:18;;;;;;;6.72;3.40;;;;;;;;;;4990477;28;20240;-62
2022/08/28 03:50:44;;;;;;;6.32;3.50;;;;;;;;;;4991169;28;20431;-62
2022/08/28 03:53:09;;;;;;;8.63;3.40;;;;;;;;;;4990473;28;20344;-61
2022/08/28 03:55:35;;;;;;;6.18;3.53;;;;;;;;;;4990918;28;20502;-62
2022/08/28 03:58:00;;;;;;;4.10;3.00;;;;;;;;;;4989917;28;20597;-62
2022/08/28 04:00:26;;;;;;;10.38;3.42;;;;;;;;;;4990218;28;20029;-62
2022/08/28 04:02:52;;;;;;;5.30;3.40;;;;;;;;;;4990402;28;20439;-61
2022/08/28 04:05:17;;;;;;;5.43;3.50;;;;;;;;;;4989838;28;20460;-61
2022/08/28 04:07:43;;;;;;;9.50;3.03;;;;;;;;;;4989830;28;20459;-63
2022/08/28 04:10:08;;;;;;;6.75;3.25;;;;;;;;;;4989896;28;20372;-62
2022/08/28 04:12:35;;;;;;;7.55;3.53;;;;;;;;;;4989675;28;20075;-62
2022/08/28 04:15:01;;;;;;;7.68;3.15;;;;;;;;;;4990150;28;20418;-61
2022/08/28 04:17:26;;;;;;;8.65;3.63;;;;;;;;;;5021254;28;20428;-62
2022/08/28 04:19:53;;;;;;;9.32;3.45;;;;;;;;;;4989621;28;20325;-62
2022/08/28 04:22:18;;;;;;;7.88;4.78;;;;;;;;;;4989348;28;20467;-62
2022/08/28 04:24:43;;;;;;;8.45;4.20;;;;;;;;;;4990551;28;20343;-62
2022/08/28 04:27:08;;;;;;;5.68;3.45;;;;;;;;;;4990457;28;20463;-62
2022/08/28 04:29:34;;;;;;;12.52;3.75;;;;;;;;;;4991405;28;20340;-62
2022/08/28 04:32:00;;;;;;;10.57;4.35;;;;;;;;;;4989798;28;20466;-63
2022/08/28 04:34:25;;;;;;;6.38;3.65;;;;;;;;;;4989832;28;20444;-62
2022/08/28 04:36:52;;;;;;;8.00;4.13;;;;;;;;;;4990066;28;20462;-62
2022/08/28 04:39:17;;;;;;;5.47;4.10;;;;;;;;;;4989430;28;20029;-62
2022/08/28 04:41:42;;;;;;;10.85;4.45;;;;;;;;;;4988406;28;20500;-62
2022/08/28 04:44:08;;;;;;;9.07;4.78;;;;;;;;;;4990418;28;20422;-62
2022/08/28 04:46:33;;;;;;;8.63;3.70;;;;;;;;;;4989609;28;20424;-62
2022/08/28 04:48:59;;;;;;;7.47;4.38;;;;;;;;;;4989814;28;20459;-62
2022/08/28 04:51:25;;;;;;;7.93;4.65;;;;;;;;;;4990328;28;20523;-62
2022/08/28 04:54:41;;;;;;;9.05;3.58;;;;;;;;;;5018766;27;1927261;-62
2022/08/28 04:57:07;;;;;;;8.40;4.18;;;;;;;;;;5064929;28;20345;-62
2022/08/28 04:59:33;;;;;;;5.95;3.40;;;;;;;;;;5064961;28;20341;-62
2022/08/28 05:01:58;;;;;;;7.30;3.97;;;;;;;;;;5065624;28;20342;-62
2022/08/28 05:04:25;;;;;;;14.43;4.15;;;;;;;;;;5064848;28;20338;-63
2022/08/28 05:06:51;;;;;;;7.47;4.22;;;;;;;;;;5064956;28;20369;-62
2022/08/28 05:09:17;;;;;;;10.05;3.45;;;;;;;;;;5064695;28;20362;-62
2022/08/28 05:11:44;;;;;;;8.70;3.90;;;;;;;;;;5064493;28;20093;-62
2022/08/28 05:14:10;;;;;;;6.13;3.97;;;;;;;;;;5066450;28;20426;-62
2022/08/28 05:16:41;;;;;;;9.50;4.40;;;;;;;;;;5065622;28;20357;-62
2022/08/28 05:19:07;;;;;;;8.52;4.25;;;;;;;;;;5065348;28;20031;-62
2022/08/28 05:21:32;;;;;;;7.35;4.25;;;;;;;;;;5064847;28;20438;-62
2022/08/28 05:23:58;;;;;;;9.73;4.63;;;;;;;;;;5066318;28;20042;-62
2022/08/28 05:26:23;;;;;;;8.02;4.68;;;;;;;;;;5064609;28;20338;-62
2022/08/28 05:28:49;;;;;;;9.82;5.53;;;;;;;;;;5064768;28;20027;-62
2022/08/28 05:31:18;;;;;;;16.20;6.18;;;;;;;;;;5064528;28;20461;-62
2022/08/28 05:33:44;;;;;;;8.30;5.32;;;;;;;;;;5065168;28;20019;-63
2022/08/28 05:36:10;;;;;;;8.48;5.38;;;;;;;;;;5064583;28;20476;-62
2022/08/28 05:38:36;;;;;;;12.18;6.50;;;;;;;;;;5065298;28;20373;-62
2022/08/28 05:41:02;;;;;;;10.20;5.85;;;;;;;;;;5064432;28;20335;-62
2022/08/28 05:43:28;;;;;;;13.60;5.68;;;;;;;;;;5065057;28;20028;-62
2022/08/28 05:46:03;;;;;;;9.35;6.05;;;;;;;;;;5064190;28;20445;-62
2022/08/28 05:48:30;;;;;;;11.18;5.38;;;;;;;;;;5065266;28;20119;-62
2022/08/28 05:51:19;;;;;;;11.18;6.70;;;;;;;;;;5064060;28;20502;-63
2022/08/28 05:53:46;;;;;;;10.15;5.05;;;;;;;;;;5063468;27;20457;-62
2022/08/28 05:56:14;;;;;;;8.85;5.78;;;;;;;;;;5063798;28;20487;-62
2022/08/28 05:58:40;;;;;;;;;;;;;;;;;;5066060;28;20429;-62
2022/08/28 06:01:15;;;;;;;11.38;5.95;;;;;;;;;;5064179;28;20321;-62
2022/08/28 06:03:42;;;;;;;12.98;6.22;;;;;;;;;;5063851;28;20074;-63
2022/08/28 06:06:08;;;;;;;12.98;6.30;;;;;;;;;;5051002;28;20394;-62
2022/08/28 06:08:34;;;;;;;13.15;5.88;;;;;;;;;;5050475;28;20323;-62
2022/08/28 06:11:04;;;;;;;10.55;5.90;;;;;;;;;;5050078;28;20537;-62
2022/08/28 06:13:30;;;;;;;11.00;5.75;;;;;;;;;;5050102;28;20335;-62
2022/08/28 06:15:55;;;;;;;10.30;5.80;;;;;;;;;;5032555;28;20486;-62
2022/08/28 06:18:21;;;;;;;13.02;6.13;;;;;;;;;;5050048;28;20515;-62
2022/08/28 06:20:47;;;;;;;17.10;6.55;;;;;;;;;;5050023;28;20414;-62
2022/08/28 06:23:15;;;;;;;10.65;5.85;;;;;;;;;;5050573;28;20360;-62
2022/08/28 06:25:45;;;;;;;12.50;6.30;;;;;;;;;;5051517;28;20035;-62
2022/08/28 06:28:12;;;;;;;15.45;7.03;;;;;;;;;;5050344;28;20326;-62
2022/08/28 06:30:38;;;;;;;10.55;6.60;;;;;;;;;;5050858;28;20410;-63
2022/08/28 06:33:04;;;;;;;13.68;6.40;;;;;;;;;;5049846;28;20335;-63
2022/08/28 06:35:30;;;;;;;9.48;5.85;;;;;;;;;;5049254;28;20456;-62
2022/08/28 06:37:56;;;;;;;12.05;7.10;;;;;;;;;;5049732;28;20462;-63
2022/08/28 06:40:21;;;;;;;13.57;6.10;;;;;;;;;;5049618;28;20353;-63
2022/08/28 06:42:47;;;;;;;11.15;6.70;;;;;;;;;;5050908;28;20368;-62
2022/08/28 06:45:12;;;;;;;17.15;8.23;;;;;;;;;;5049323;28;20484;-62
2022/08/28 06:47:37;;;;;;;14.57;6.97;;;;;;;;;;5049316;28;20050;-62
2022/08/28 06:50:03;;;;;;;12.93;6.18;;;;;;;;;;5050653;28;20562;-62
2022/08/28 06:52:29;;;;;;;11.00;6.60;;;;;;;;;;5049121;28;20507;-62
2022/08/28 06:54:54;;;;;;;13.27;6.78;;;;;;;;;;5048955;28;20051;-63
2022/08/28 06:57:20;;;;;;;14.32;7.43;;;;;;;;;;5049288;28;20560;-62
2022/08/28 06:59:47;;;;;;;14.90;7.68;;;;;;;;;;5032296;28;20077;-63
2022/08/28 07:02:13;;;;;;;11.02;6.53;;;;;;;;;;5049537;28;20386;-62
2022/08/28 07:04:38;;;;;;;12.13;6.65;;;;;;;;;;5050597;28;20338;-62
2022/08/28 07:07:04;;;;;;;10.77;6.78;;;;;;;;;;5050308;28;20349;-62
2022/08/28 07:09:30;;;;;;;11.88;6.80;;;;;;;;;;5049022;28;20085;-62
2022/08/28 07:11:55;;;;;;;9.23;6.47;;;;;;;;;;5050196;28;20442;-62
2022/08/28 07:14:21;;;;;;;13.82;6.70;;;;;;;;;;5048827;28;20133;-62
2022/08/28 07:16:46;;;;;;;10.18;6.05;;;;;;;;;;5047806;28;20459;-63
2022/08/28 07:19:12;;;;;;;12.55;5.85;;;;;;;;;;5049603;28;20321;-62
2022/08/28 07:21:43;;;;;;;12.48;6.93;;;;;;;;;;5048628;28;20438;-62
2022/08/28 07:24:10;;;;;;;11.38;6.15;;;;;;;;;;5048514;28;20476;-62
2022/08/28 07:26:35;;;;;;;13.30;6.25;;;;;;;;;;5049036;28;20387;-62
2022/08/28 07:29:02;;;;;;;10.05;6.45;;;;;;;;;;5048748;28;20028;-62
2022/08/28 07:31:28;;;;;;;10.45;4.80;;;;;;;;;;5048360;28;20374;-62
2022/08/28 07:33:54;;;;;;;10.90;5.00;;;;;;;;;;5050178;28;20027;-62
2022/08/28 07:36:22;;;;;;;9.80;4.60;;;;;;;;;;5048407;28;20095;-61
2022/08/28 07:38:49;;;;;;;15.93;5.05;;;;;;;;;;5048453;28;20104;-62
2022/08/28 07:41:19;;;;;;;12.65;5.00;;;;;;;;;;5048297;28;20430;-62
2022/08/28 07:46:29;;;;;;;10.00;5.43;;;;;;;;;;5049336;28;20542;-62
2022/08/28 07:48:57;;;;;;;10.65;5.30;;;;;;;;;;5048152;28;20517;-62
2022/08/28 07:51:23;;;;;;;9.00;4.40;;;;;;;;;;5048306;28;20103;-61
2022/08/28 07:53:48;;;;;;;8.27;4.63;;;;;;;;;;5047319;28;20051;-62
2022/08/28 07:56:13;;;;;;;7.32;4.78;;;;;;;;;;5047971;28;20346;-62
2022/08/28 07:58:39;;;;;;;8.98;5.10;;;;;;;;;;5050021;28;20342;-62
2022/08/28 08:01:04;;;;;;;7.18;4.97;;;;;;;;;;5049779;28;20457;-62
2022/08/28 08:03:30;;;;;;;6.38;3.47;;;;;;;;;;5048455;28;20426;-62
2022/08/28 08:06:02;;;;;;;5.53;3.83;;;;;;;;;;5047979;28;20347;-62
2022/08/28 08:08:28;;;;;;;9.70;4.32;;;;;;;;;;5014479;28;20366;-62
2022/08/28 08:11:17;;;;;;;9.38;3.78;;;;;;;;;;5049382;28;20358;-63
2022/08/28 08:13:44;;;;;;;7.68;4.40;;;;;;;;;;5047975;28;20445;-62
2022/08/28 08:16:18;;;;;;;7.13;4.47;;;;;;;;;;5047965;28;20475;-62
2022/08/28 08:18:45;;;;;;;6.28;4.00;;;;;;;;;;5047881;28;20352;-62
2022/08/28 08:21:12;;;;;;;8.23;4.40;;;;;;;;;;5029923;28;20337;-62
2022/08/28 08:23:39;;;;;;;6.40;3.40;;;;;;;;;;5047392;28;20406;-62
2022/08/28 08:26:07;;;;;;;6.43;4.28;;;;;;;;;;5047760;28;20024;-62
2022/08/28 08:28:33;;;;;;;7.57;4.30;;;;;;;;;;5028843;28;20567;-62
2022/08/28 08:31:04;;;;;;;7.93;4.07;;;;;;;;;;5029343;28;20426;-62
2022/08/28 08:33:30;;;;;;;5.95;3.83;;;;;;;;;;5047149;28;20453;-62
2022/08/28 08:35:56;;;;;;;8.00;4.10;;;;;;;;;;5047480;28;20032;-62
2022/08/28 08:38:21;;;;;;;8.55;4.03;;;;;;;;;;5047321;28;20468;-62
2022/08/28 08:40:47;;;;;;;6.10;3.80;;;;;;;;;;5048834;28;20333;-63
2022/08/28 08:43:14;;;;;;;6.47;3.60;;;;;;;;;;5048452;28;20426;-62
2022/08/28 08:45:41;;;;;;;6.75;4.35;;;;;;;;;;5048262;28;20527;-62
2022/08/28 08:48:12;;;;;;;6.80;3.75;;;;;;;;;;5029173;28;20509;-62
2022/08/28 08:50:40;;;;;;;5.85;3.80;;;;;;;;;;5029548;28;20393;-62
2022/08/28 08:53:27;;;;;;;9.20;4.57;;;;;;;;;;5046175;28;20426;-62
2022/08/28 08:55:55;;;;;;;6.50;3.40;;;;;;;;;;5029189;28;20434;-62
2022/08/28 08:58:40;;;;;;;5.50;3.38;;;;;;;;;;5047249;28;20031;-62
2022/08/28 09:01:18;;;;;;;5.50;3.53;;;;;;;;;;5029195;28;20462;-62
2022/08/28 09:03:56;;;;;;;8.70;3.97;;;;;;;;;;5029102;28;20472;-62
2022/08/28 09:07:03;;;;;;;6.33;4.03;;;;;;;;;;5047260;28;20077;-62
2022/08/28 09:09:39;;;;;;;5.25;3.55;;;;;;;;;;5029336;28;20551;-63
2022/08/28 09:12:08;;;;;;;6.95;3.45;;;;;;;;;;5047102;28;20379;-62
2022/08/28 09:14:36;;;;;;;6.15;3.63;;;;;;;;;;5047095;28;20446;-62
2022/08/28 09:17:03;;;;;;;6.97;3.63;;;;;;;;;;5047704;28;20388;-62
2022/08/28 09:19:29;;;;;;;7.40;3.15;;;;;;;;;;5028751;28;20492;-62
2022/08/28 09:21:55;;;;;;;4.88;3.50;;;;;;;;;;5047116;28;20408;-62
2022/08/28 09:24:28;;;;;;;5.70;4.32;;;;;;;;;;5046929;28;20510;-63
2022/08/28 09:26:56;;;;;;;5.47;3.25;;;;;;;;;;5046954;28;20341;-62
2022/08/28 09:29:45;;;;;;;;;;;;;;;;;;5048201;28;20032;-62
2022/08/28 09:32:24;;;;;;;5.20;3.75;;;;;;;;;;5047933;28;20262;-63
2022/08/28 09:35:08;;;;;;;4.38;3.20;;;;;;;;;;5046781;28;20363;-62
2022/08/28 09:37:35;;;;;;;3.60;2.78;;;;;;;;;;5047493;28;20090;-62
2022/08/28 09:40:15;;;;;;;5.63;3.60;;;;;;;;;;5029894;28;20413;-62
2022/08/28 09:43:25;;;;;;;8.98;3.55;;;;;;;;;;5051066;28;20120;-63
2022/08/28 09:46:04;;;;;;;5.47;3.00;;;;;;;;;;5050650;28;20512;-63
2022/08/28 09:48:34;;;;;;;6.05;3.47;;;;;;;;;;5050628;28;20434;-62
2022/08/28 09:51:20;;;;;;;7.97;4.22;;;;;;;;;;5032406;28;20365;-62
2022/08/28 09:53:51;;;;;;;5.13;3.33;;;;;;;;;;5031920;28;20516;-62
2022/08/28 09:56:35;;;;;;;5.90;3.38;;;;;;;;;;5050554;28;20481;-63
2022/08/28 09:59:05;;;;;;;4.75;3.70;;;;;;;;;;5032442;28;20442;-62
2022/08/28 10:01:33;;;;;;;5.15;3.20;;;;;;;;;;5050079;28;20426;-62
2022/08/28 10:04:28;;;;;;;4.43;3.00;;;;;;;;;;5050162;28;20478;-63
2022/08/28 10:07:01;;;;;;;6.85;3.17;;;;;;;;;;5050290;28;20341;-63
2022/08/28 10:09:44;;;;;;;5.38;2.75;;;;;;;;;;5032710;28;20358;-63
2022/08/28 10:12:39;;;;;;;5.88;3.22;;;;;;;;;;5051377;28;20104;-62
2022/08/28 10:15:17;;;;;;;5.10;3.20;;;;;;;;;;5031913;28;20464;-62
2022/08/28 10:17:50;;;;;;;6.40;3.20;;;;;;;;;;5031755;28;20453;-62
2022/08/28 10:20:22;;;;;;;7.40;4.10;;;;;;;;;;5032087;28;20426;-62
2022/08/28 10:22:56;;;;;;;5.07;3.38;;;;;;;;;;5051849;28;20049;-62
2022/08/28 10:25:40;;;;;;;5.35;3.00;;;;;;;;;;5050019;28;20409;-62
2022/08/28 10:28:26;;;;;;;6.20;3.47;;;;;;;;;;5050137;28;20457;-62
2022/08/28 10:30:54;;;;;;;4.97;2.95;;;;;;;;;;5050975;28;20457;-62
2022/08/28 10:33:47;;;;;;;6.50;3.17;;;;;;;;;;5049594;28;20417;-62
2022/08/28 10:36:25;;;;;;;4.75;3.10;;;;;;;;;;5006209;28;20504;-62
2022/08/28 10:39:19;;;;;;;5.90;3.40;;;;;;;;;;5050159;28;20525;-62
2022/08/28 10:41:50;;;;;;;5.78;2.75;;;;;;;;;;4960521;28;20053;-62
2022/08/28 10:44:51;;;;;;;5.28;3.75;;;;;;;;;;5031743;28;20434;-62
2022/08/28 10:47:18;;;;;;;5.68;3.40;;;;;;;;;;4997327;28;20350;-63
2022/08/28 10:49:46;;;;;;;6.97;3.43;;;;;;;;;;5031858;28;20505;-62
2022/08/28 10:52:16;;;;;;;6.03;3.35;;;;;;;;;;5032530;28;20303;-62
2022/08/28 10:54:46;;;;;;;4.80;3.20;;;;;;;;;;5027457;28;20374;-62
2022/08/28 10:57:30;;;;;;;7.45;3.65;;;;;;;;;;5027725;28;20485;-62
2022/08/28 10:59:57;;;;;;;6.25;3.55;;;;;;;;;;5029821;28;20072;-62
2022/08/28 11:02:24;;;;;;;9.57;3.88;;;;;;;;;;5029676;28;20416;-62
2022/08/28 11:04:50;;;;;;;6.93;3.42;;;;;;;;;;5029551;28;20315;-62
2022/08/28 11:07:30;;;;;;;6.03;3.50;;;;;;;;;;5029782;28;20111;-61
2022/08/28 11:10:15;;;;;;;5.38;3.30;;;;;;;;;;5029256;28;20427;-61
2022/08/28 11:12:42;;;;;;;3.63;2.83;;;;;;;;;;5027374;28;20020;-62
2022/08/28 11:15:26;;;;;;;5.05;3.03;;;;;;;;;;5027446;28;20319;-61
2022/08/28 11:17:53;;;;;;;8.57;3.50;;;;;;;;;;5029322;28;20450;-62
2022/08/28 11:20:28;;;;;;;5.78;3.22;;;;;;;;;;5027829;28;20450;-61
2022/08/28 11:23:07;;;;;;;6.05;2.97;;;;;;;;;;5028809;28;20536;-61
2022/08/28 11:25:35;;;;;;;;;;;;;;;;;;5027837;28;20040;-61
2022/08/28 11:28:14;;;;;;;;;;;;;;;;;;5029026;28;20028;-61
2022/08/28 11:30:40;;;;;;;6.15;3.40;;;;;;;;;;5028805;28;20322;-61
2022/08/28 11:33:08;;;;;;;4.45;3.10;;;;;;;;;;5028507;28;20343;-61
2022/08/28 11:35:36;;;;;;;6.35;3.80;;;;;;;;;;5027211;28;20089;-61
2022/08/28 11:38:02;;;;;;;7.90;3.15;;;;;;;;;;5028660;28;20458;-61
2022/08/28 11:40:27;;;;;;;5.00;3.10;;;;;;;;;;5030682;28;20338;-61
2022/08/28 11:43:15;;;;;;;4.65;2.92;;;;;;;;;;5028539;28;20530;-61
2022/08/28 11:45:44;;;;;;;6.03;3.58;;;;;;;;;;5029559;28;20409;-61
2022/08/28 11:48:22;;;;;;;6.57;3.50;;;;;;;;;;5028386;28;20512;-61
2022/08/28 11:50:55;;;;;;;4.38;3.13;;;;;;;;;;5028250;28;20422;-62
2022/08/28 11:53:36;;;;;;;5.15;3.42;;;;;;;;;;5026327;28;20475;-62
2022/08/28 11:56:24;;;;;;;5.75;3.70;;;;;;;;;;5027155;28;20458;-62
2022/08/28 11:58:56;;;;;;;4.68;2.88;;;;;;;;;;5027923;28;20358;-62
2022/08/28 12:01:35;;;;;;;5.95;2.90;;;;;;;;;;5027860;28;20043;-62
2022/08/28 12:04:03;;;;;;;6.03;3.58;;;;;;;;;;5025955;28;20378;-61
2022/08/28 12:06:51;;;;;;;4.60;3.15;;;;;;;;;;5028197;28;20425;-62
2022/08/28 12:09:37;;;;;;;6.53;3.28;;;;;;;;;;5027759;28;20470;-61
2022/08/28 12:12:19;;;;;;;5.65;3.67;;;;;;;;;;5026322;28;20419;-62
2022/08/28 12:14:44;;;;;;;5.72;3.65;;;;;;;;;;5027773;28;20382;-61
2022/08/28 12:17:19;;;;;;;6.13;3.65;;;;;;;;;;5028064;28;20346;-62
2022/08/28 12:20:09;;;;;;;6.95;3.55;;;;;;;;;;5027465;28;20393;-61
2022/08/28 12:22:46;;;;;;;11.65;3.85;;;;;;;;;;5028828;28;20335;-62
2022/08/28 12:25:35;;;;;;;6.20;3.95;;;;;;;;;;5026072;28;20446;-62
2022/08/28 12:28:16;;;;;;;4.15;3.63;;;;;;;;;;5027612;28;20515;-61
2022/08/28 12:31:12;;;;;;;9.05;4.18;;;;;;;;;;5026812;28;20557;-61
2022/08/28 12:33:53;;;;;;;8.43;5.03;;;;;;;;;;5026814;28;20430;-62
2022/08/28 12:36:25;;;;;;;6.40;4.40;;;;;;;;;;5028578;28;20422;-60
2022/08/28 12:38:53;;;;;;;10.18;4.32;;;;;;;;;;5027102;28;20354;-61
2022/08/28 12:41:19;;;;;;;6.70;4.43;;;;;;;;;;5027760;28;20474;-61
2022/08/28 12:43:47;;;;;;;9.43;4.88;;;;;;;;;;5027264;28;20603;-61
2022/08/28 12:46:19;;;;;;;8.83;4.87;;;;;;;;;;5028950;28;20360;-62
2022/08/28 12:48:49;;;;;;;12.55;5.88;;;;;;;;;;5028551;28;20327;-61
2022/08/28 12:51:28;;;;;;;10.02;5.07;;;;;;;;;;5027594;28;20451;-62
2022/08/28 12:54:00;;;;;;;9.45;4.90;;;;;;;;;;5037388;28;20520;-61
2022/08/28 12:56:31;;;;;;;9.73;6.57;;;;;;;;;;5048473;28;20454;-62
2022/08/28 12:59:22;;;;;;;8.18;5.45;;;;;;;;;;5030586;28;20450;-62
2022/08/28 13:01:48;;;;;;;10.20;5.55;;;;;;;;;;5047327;28;20489;-61
2022/08/28 13:04:32;;;;;;;8.43;5.00;;;;;;;;;;5029634;28;20591;-61
2022/08/28 13:07:09;;;;;;;6.82;4.65;;;;;;;;;;5049123;28;20454;-61
2022/08/28 13:09:35;;;;;;;6.85;5.05;;;;;;;;;;5029307;28;20047;-61
2022/08/28 13:12:01;;;;;;;8.95;5.80;;;;;;;;;;5048708;28;20418;-61
2022/08/28 13:14:37;;;;;;;8.35;5.72;;;;;;;;;;5047571;28;20385;-61
2022/08/28 13:17:03;;;;;;;8.95;4.88;;;;;;;;;;5051434;28;20512;-61
2022/08/28 13:19:31;;;;;;;9.18;6.30;;;;;;;;;;5033560;28;20441;-61
2022/08/28 13:22:03;;;;;;;9.93;5.93;;;;;;;;;;5050800;28;20365;-61
2022/08/28 13:24:34;;;;;;;9.20;6.00;;;;;;;;;;4702467;28;10000444;-62
2022/08/28 13:27:10;;;;;;;11.18;5.70;;;;;;;;;;5051659;28;20465;-61
2022/08/28 13:29:37;;;;;;;9.02;5.65;;;;;;;;;;5051246;28;20456;-61
2022/08/28 13:32:05;;;;;;;10.02;5.72;;;;;;;;;;5033099;28;20357;-61
2022/08/28 13:34:36;;;;;;;9.65;5.78;;;;;;;;;;5052942;28;20039;-62
2022/08/28 13:37:04;;;;;;;8.27;5.70;;;;;;;;;;5051296;28;20495;-62
2022/08/28 13:39:31;;;;;;;;;;;;;;;;;;5051471;28;20430;-61
2022/08/28 13:41:58;;;;;;;8.18;5.40;;;;;;;;;;5051861;28;20006;-61
2022/08/28 13:44:27;;;;;;;10.70;5.93;;;;;;;;;;5032333;28;20362;-61
2022/08/28 13:46:52;;;;;;;;;;;;;;;;;;5051612;28;20346;-61
2022/08/28 13:49:17;;;;;;;9.35;5.88;;;;;;;;;;5050885;28;19911;-61
2022/08/28 13:51:42;;;;;;;8.70;5.28;;;;;;;;;;5050777;28;20339;-61
2022/08/28 13:54:08;;;;;;;9.25;5.57;;;;;;;;;;5050395;28;20036;-61
2022/08/28 13:56:33;;;;;;;9.20;5.25;;;;;;;;;;5051755;28;20460;-61
2022/08/28 13:58:59;;;;;;;8.18;5.05;;;;;;;;;;5051299;28;20379;-61
2022/08/28 14:03:34;;;;;;;6.30;4.18;;;;;;;;;;5050710;28;20406;-61
2022/08/28 14:04:12;;;;;;;8.55;4.43;;;;;;;;;;5050311;28;20412;-61
2022/08/28 14:06:40;;;;;;;6.95;4.13;;;;;;;;;;5050388;28;20312;-62
2022/08/28 14:09:05;;;;;;;8.13;4.20;;;;;;;;;;5050485;28;20342;-61
2022/08/28 14:11:32;;;;;;;7.13;3.88;;;;;;;;;;5050179;28;20347;-62
2022/08/28 14:13:57;;;;;;;8.05;3.95;;;;;;;;;;5050168;28;20430;-61
2022/08/28 14:16:24;;;;;;;5.30;3.33;;;;;;;;;;5050155;28;20468;-62
2022/08/28 14:18:51;;;;;;;7.28;4.22;;;;;;;;;;5050514;28;20093;-61
2022/08/28 14:21:17;;;;;;;5.90;3.95;;;;;;;;;;5050168;28;20392;-62
2022/08/28 14:23:42;;;;;;;5.53;3.53;;;;;;;;;;5050628;28;20053;-63
2022/08/28 14:26:07;;;;;;;6.70;3.72;;;;;;;;;;5049672;28;20390;-62
2022/08/28 14:28:33;;;;;;;9.32;3.60;;;;;;;;;;5050467;28;20046;-63
2022/08/28 14:30:58;;;;;;;8.38;3.85;;;;;;;;;;5050053;28;20455;-62
2022/08/28 14:33:23;;;;;;;3.28;2.78;;;;;;;;;;5050075;28;20430;-64
2022/08/28 14:35:49;;;;;;;5.95;3.47;;;;;;;;;;5050017;28;20046;-63
2022/08/28 14:38:14;;;;;;;8.38;3.85;;;;;;;;;;5049825;28;20362;-63
2022/08/28 14:40:42;;;;;;;5.75;2.40;;;;;;;;;;5050147;28;20353;-64
2022/08/28 14:43:10;;;;;;;5.90;3.45;;;;;;;;;;5051188;28;20380;-64
2022/08/28 14:45:46;;;;;;;4.72;2.72;;;;;;;;;;5049256;28;20442;-65
2022/08/28 14:48:13;;;;;;;3.08;2.20;;;;;;;;;;5049617;28;20097;-65
2022/08/28 14:50:43;;;;;;;6.70;3.08;;;;;;;;;;5049940;28;20490;-64
2022/08/28 14:53:09;;;;;;;5.68;3.13;;;;;;;;;;5050057;28;20478;-65
2022/08/28 14:55:40;;;;;;;6.65;3.08;;;;;;;;;;5049540;28;20497;-64
2022/08/28 14:58:05;;;;;;;6.78;2.88;;;;;;;;;;5049167;28;20312;-64
2022/08/28 15:00:31;;;;;;;4.53;2.90;;;;;;;;;;5049066;28;20342;-64
2022/08/28 15:02:56;;;;;;;4.60;2.40;;;;;;;;;;5031103;28;20338;-64
2022/08/28 15:05:21;;;;;;;7.03;3.15;;;;;;;;;;5049249;28;20391;-63